Latest Weather Observations for Falls Creek

IDV60801

Issued at 8:35 pm EDT Friday 31 October 2014 (issued every 30 minutes, with the page automatically refreshed every 10 minutes)

About weather observations | Map of weather stations | Latest weather observations for VIC | Other Formats
Station Details ID: 083084 Name: FALLS CREEK Lat: -36.87 Lon: 147.28 Height: 1765.0 m
Data from the previous 72 hours. | See also: Recent months at Falls Creek
Date/Time
EDT
Temp
°C
App
Temp
°C
Dew
Point
Rel
Hum
%
Delta-T
°C
Wind Press
QNH
hPa
Press
MSL
hPa
Rain
since 9 am
mm
Dir
 
Spd
km/h
Gust
km/h
Spd
kts
Gust
kts
31/08:30pm 14.4 - 2.6 45 5.8 - - - - - 1011.8 1009.5 -
31/08:00pm 14.4 - 2.6 45 5.8 - - - - - 1011.9 1009.6 -
31/07:30pm 14.3 - 2.5 45 5.8 - - - - - 1012.0 1009.8 -
31/07:00pm 14.7 - 3.2 46 5.8 - - - - - 1012.1 1009.9 -
31/06:30pm 15.3 - 3.5 45 5.9 - - - - - 1012.4 1010.1 -
31/06:00pm 15.8 - 3.6 44 6.2 - - - - - 1012.6 1010.4 -
31/05:30pm 16.0 - 3.1 42 6.5 - - - - - 1012.6 1010.4 -
31/05:00pm 15.2 - 2.7 43 6.2 - - - - - 1012.7 1010.5 -
31/04:30pm 15.4 - 3.2 44 6.1 - - - - - 1013.1 1010.9 -
31/04:00pm 17.1 - 2.7 38 7.2 - - - - - 1013.2 1011.0 -
31/03:30pm 16.8 - 2.8 39 7.0 - - - - - 1013.6 1011.4 -
31/03:00pm 16.1 - 1.8 38 7.0 - - - - - 1013.7 1011.5 0.0
31/02:30pm 15.2 - 2.4 42 6.3 - - - - - 1014.0 1011.9 -
31/02:00pm 15.3 - 2.5 42 6.3 - - - - - 1014.5 1012.4 -
31/01:30pm 15.3 - 3.8 46 5.8 - - - - - 1015.1 1013.0 -
31/01:00pm 15.5 - 3.0 43 6.3 - - - - - 1015.4 1013.2 -
31/12:30pm 14.9 - 3.1 45 5.9 - - - - - 1015.7 1013.6 -
31/12:00pm 14.0 - 2.6 46 5.6 - - - - - 1015.9 1013.8 -
31/11:30am 13.6 - 1.9 45 5.6 - - - - - 1016.2 1014.1 0.0
31/11:00am 13.0 - 1.0 44 5.7 - - - - - 1016.2 1014.1 0.0
31/10:30am 12.4 - 1.1 46 5.3 - - - - - 1016.5 1014.5 0.0
31/10:00am 12.0 - 1.1 47 5.1 - - - - - 1016.8 1014.7 0.0
31/09:30am 11.0 - 0.1 47 4.9 - - - - - 1016.9 1014.8 0.0
31/09:00am 9.7 - -0.8 48 4.6 - - - - - 1016.9 1014.8 0.0
31/08:30am 9.3 - -0.3 51 4.3 - - - - - 1016.8 1014.7 0.0
31/08:00am 9.2 - -0.1 52 4.1 - - - - - 1016.8 1014.7 0.0
31/07:30am 8.8 - -0.2 53 4.0 - - - - - 1016.7 1014.6 0.0
31/07:00am 8.7 - -1.1 50 4.2 - - - - - 1016.3 1014.2 0.0
31/06:30am 8.2 - -0.8 53 3.9 - - - - - 1016.2 1014.1 0.0
31/06:00am 7.9 - -0.1 57 3.5 - - - - - 1015.9 1013.8 0.0
31/05:30am 7.9 - -0.3 56 3.6 - - - - - 1015.6 1013.5 0.0
31/05:00am 8.0 - -0.7 54 3.8 - - - - - 1015.5 1013.3 0.0
31/04:30am 8.1 - -1.7 50 4.2 - - - - - 1015.5 1013.3 0.0
31/04:00am 8.2 - -1.3 51 4.1 - - - - - 1015.6 1013.5 0.0
31/03:30am 8.4 - -3.7 42 4.9 - - - - - 1015.8 1013.7 0.0
31/03:00am 8.2 - -1.9 49 4.3 - - - - - 1015.9 1013.8 0.0
31/02:30am 8.5 - -1.6 49 4.3 - - - - - 1015.9 1013.8 0.0
31/02:00am 8.9 - -3.3 42 5.0 - - - - - 1016.4 1014.3 0.0
31/01:30am 8.7 - -2.6 45 4.7 - - - - - 1016.8 1014.7 0.0
31/01:00am 8.9 - -2.7 44 4.8 - - - - - 1017.0 1015.0 0.0
31/12:30am 8.9 - -1.5 48 4.5 - - - - - 1017.5 1015.4 0.0
31/12:00am 9.0 - -0.3 52 4.1 - - - - - 1017.6 1015.6 0.0
 
Date/Time
EDT
Temp
°C
App
Temp
°C
Dew
Point
Rel
Hum
%
Delta-T
°C
Wind Press
QNH
hPa
Press
MSL
hPa
Rain
since 9 am
mm
Dir
 
Spd
km/h
Gust
km/h
Spd
kts
Gust
kts
30/11:30pm 9.2 - -0.1 52 4.1 - - - - - 1017.7 1015.7 0.0
30/11:00pm 9.1 - 0.0 53 4.1 - - - - - 1018.1 1016.1 0.0
30/10:30pm 9.1 - 0.8 56 3.8 - - - - - 1018.2 1016.2 0.0
30/10:00pm 9.2 - 1.4 58 3.6 - - - - - 1018.1 1016.1 0.0
30/09:30pm 9.3 - 1.5 58 3.6 - - - - - 1018.2 1016.2 0.0
30/09:00pm 9.3 - 1.0 56 3.8 - - - - - 1018.2 1016.2 0.0
30/08:30pm 9.4 - 1.1 56 3.8 - - - - - 1018.2 1016.2 0.0
30/08:00pm 9.7 - 1.1 55 3.9 - - - - - 1018.0 1015.9 0.0
30/07:30pm 10.2 - 1.3 54 4.1 - - - - - 1018.0 1015.9 0.0
30/07:00pm 11.0 - 1.5 52 4.4 - - - - - 1017.7 1015.7 0.0
30/06:30pm 11.3 - 1.3 50 4.7 - - - - - 1017.5 1015.4 0.0
30/06:00pm 11.6 - 2.6 54 4.3 - - - - - 1017.4 1015.3 0.0
30/05:30pm 12.0 - 2.7 53 4.5 - - - - - 1017.4 1015.3 0.0
30/05:00pm 11.9 - 2.1 51 4.7 - - - - - 1017.0 1015.0 0.0
30/04:30pm 12.1 - 2.3 51 4.7 - - - - - 1016.9 1014.8 0.0
30/04:00pm 12.4 - 2.6 51 4.7 - - - - - 1017.0 1015.0 0.0
30/03:30pm 13.0 - 2.8 50 5.0 - - - - - 1017.3 1015.2 0.0
30/03:00pm 12.7 - 2.6 50 4.9 - - - - - 1017.4 1015.3 0.0
30/02:30pm 12.3 - 3.0 53 4.5 - - - - - 1017.6 1015.6 0.0
30/02:00pm 12.2 - 3.2 54 4.4 - - - - - 1017.6 1015.6 0.0
30/01:30pm 11.4 - 4.2 61 3.6 - - - - - 1017.5 1015.4 0.0
30/01:00pm 11.7 - 4.9 63 3.4 - - - - - 1017.6 1015.6 0.0
30/12:30pm 11.0 - 4.2 63 3.4 - - - - - 1017.4 1015.3 0.0
30/12:00pm 10.5 - 4.0 64 3.2 - - - - - 1017.7 1015.7 0.0
30/11:30am 10.5 - 4.2 65 3.1 - - - - - 1017.9 1015.8 0.0
30/11:00am 9.5 - 4.3 70 2.6 - - - - - 1018.0 1015.9 0.0
30/10:30am 9.0 - 4.6 74 2.2 - - - - - 1018.2 1016.2 0.0
30/10:00am 8.8 - 4.0 72 2.3 - - - - - 1018.1 1016.1 0.0
30/09:30am 8.2 - 3.5 72 2.2 - - - - - 1017.7 1015.7 0.0
30/09:00am 6.9 - 3.2 77 1.7 - - - - - 1017.6 1015.6 0.0
30/08:30am 6.9 - 3.0 76 1.8 - - - - - 1017.4 1015.3 0.0
30/08:00am 6.9 - 2.2 72 2.2 - - - - - 1017.1 1015.1 0.0
30/07:30am 6.2 - 2.3 76 1.8 - - - - - 1017.4 1015.3 0.0
30/07:00am 5.3 - 2.5 82 1.3 - - - - - 1017.1 1015.1 0.0
30/06:30am 4.8 - 2.2 83 1.2 - - - - - 1016.9 1014.8 0.0
30/06:00am 4.8 - 2.2 83 1.2 - - - - - 1016.8 1014.7 0.0
30/05:30am 4.8 - 2.0 82 1.3 - - - - - 1016.8 1014.7 0.0
30/05:00am 4.9 - 2.3 83 1.2 - - - - - 1016.5 1014.5 0.0
30/04:30am 5.0 - 2.2 82 1.3 - - - - - 1016.5 1014.5 0.0
30/04:00am 5.0 - 2.5 84 1.1 - - - - - 1016.7 1014.6 0.0
30/03:30am 5.0 - 2.5 84 1.1 - - - - - 1016.8 1014.7 0.0
30/03:00am 5.2 - 2.6 83 1.2 - - - - - 1016.9 1014.8 0.0
30/02:30am 4.9 - 2.4 84 1.1 - - - - - 1017.1 1015.1 0.0
30/02:00am 4.9 - 2.6 85 1.0 - - - - - 1017.4 1015.3 0.0
30/01:30am 5.0 - 2.5 84 1.1 - - - - - 1017.4 1015.3 0.0
30/01:00am 4.8 - 2.3 84 1.1 - - - - - 1017.4 1015.3 0.0
30/12:30am 4.8 - 2.7 86 1.0 - - - - - 1017.6 1015.6 0.0
30/12:00am 4.7 - 2.7 87 0.9 - - - - - 1017.9 1015.8 0.0
 
Date/Time
EDT
Temp
°C
App
Temp
°C
Dew
Point
Rel
Hum
%
Delta-T
°C
Wind Press
QNH
hPa
Press
MSL
hPa
Rain
since 9 am
mm
Dir
 
Spd
km/h
Gust
km/h
Spd
kts
Gust
kts
29/11:30pm 4.9 - 2.8 86 1.0 - - - - - 1018.0 1015.9 0.0
29/11:00pm 5.1 - 3.0 86 1.0 - - - - - 1018.1 1016.1 0.0
29/10:30pm 5.2 - 3.4 88 0.8 - - - - - 1018.4 1016.4 0.0
29/10:00pm 5.2 - 3.1 86 1.0 - - - - - 1018.4 1016.4 0.0
29/09:30pm 5.2 - 3.1 86 1.0 - - - - - 1018.7 1016.7 0.0
29/09:00pm 5.5 - 3.5 87 0.9 - - - - - 1018.7 1016.7 0.0
29/08:30pm 5.7 - 3.7 87 0.9 - - - - - 1018.6 1016.6 0.0
29/08:00pm 6.1 - 3.8 85 1.1 - - - - - 1018.6 1016.6 0.0
29/07:30pm 6.6 - 3.6 81 1.4 - - - - - 1018.6 1016.6 0.0
29/07:00pm 7.1 - 3.3 77 1.8 - - - - - 1018.3 1016.3 0.0
29/06:30pm 7.6 - 3.8 77 1.8 - - - - - 1018.2 1016.2 0.0
29/06:00pm 8.4 - 5.0 79 1.7 - - - - - 1018.2 1016.2 0.0
29/05:30pm 9.9 - 5.7 75 2.1 - - - - - 1018.2 1016.2 0.0
29/05:00pm 10.9 - 6.1 72 2.5 - - - - - 1018.1 1016.1 0.0
29/04:30pm 9.9 - 5.7 75 2.1 - - - - - 1018.1 1016.1 0.0
29/04:00pm 10.0 - 5.4 73 2.3 - - - - - 1018.2 1016.2 0.0
29/03:30pm 11.1 - 5.2 67 3.0 - - - - - 1018.3 1016.3 0.0
29/03:00pm 11.2 - 5.1 66 3.1 - - - - - 1018.6 1016.6 0.0
29/02:30pm 11.3 - 4.7 64 3.3 - - - - - 1018.7 1016.7 0.0
29/02:00pm 10.4 - 5.6 72 2.4 - - - - - 1018.7 1016.7 0.0
29/01:30pm 10.8 - 4.9 67 3.0 - - - - - 1018.8 1016.8 0.0
29/01:00pm 10.8 - 3.4 60 3.6 - - - - - 1018.8 1016.8 0.0
29/12:30pm 9.1 - 3.5 68 2.7 - - - - - 1018.9 1016.9 0.0
29/12:00pm 10.2 - 4.4 67 2.9 - - - - - 1019.3 1017.3 0.0
29/11:30am 8.9 - 2.7 65 2.9 - - - - - 1019.3 1017.3 0.0
29/11:00am 8.9 - 3.3 68 2.7 - - - - - 1019.3 1017.3 0.0
29/10:30am 8.9 - 2.5 64 3.0 - - - - - 1019.2 1017.2 0.0
29/10:00am 7.2 - 2.3 71 2.3 - - - - - 1019.0 1017.1 0.0
29/09:30am 7.9 - 2.4 68 2.6 - - - - - 1018.8 1016.8 0.0
29/09:00am 8.5 - -1.0 51 4.1 - - - - - 1018.3 1016.3 0.0
29/08:30am 7.4 - -2.1 51 4.0 - - - - - 1018.1 1016.1 0.0
29/08:00am 6.1 - -2.7 53 3.6 - - - - - 1017.7 1015.7 0.0
29/07:30am 4.4 - -3.8 55 3.2 - - - - - 1017.5 1015.4 0.0
29/07:00am 3.8 - -4.4 55 3.1 - - - - - 1017.1 1015.1 0.0
29/06:30am 2.6 - -4.4 60 2.8 - - - - - 1016.7 1014.6 0.0
29/06:00am 2.5 - -4.5 60 2.8 - - - - - 1016.3 1014.2 0.0
29/05:30am 3.6 - -4.1 57 2.9 - - - - - 1016.1 1014.0 0.0
29/05:00am 3.4 - -4.1 58 2.9 - - - - - 1015.8 1013.7 0.0
29/04:30am 3.3 - -3.7 60 2.7 - - - - - 1015.5 1013.3 0.0
29/04:00am 3.1 - -3.2 63 2.4 - - - - - 1015.2 1013.1 0.0
29/03:30am 2.1 - -2.2 73 1.7 - - - - - 1015.1 1013.0 0.0
29/03:00am 1.0 - 1.0 100 0.0 - - - - - 1015.6 1013.5 0.0
29/02:30am 0.8 - 0.8 100 0.0 - - - - - 1015.4 1013.2 0.0
29/02:00am 1.2 - 1.2 100 0.0 - - - - - 1015.2 1013.1 0.0
29/01:30am 1.4 - 1.4 100 0.0 - - - - - 1015.5 1013.3 0.0
29/01:00am 1.8 - 1.8 100 0.0 - - - - - 1015.4 1013.2 0.0
29/12:30am 2.1 - 2.1 100 0.0 - - - - - 1015.2 1013.1 0.0
29/12:00am 2.4 - 2.4 100 0.0 - - - - - 1015.4 1013.2 0.0
 
Date/Time
EDT
Temp
°C
App
Temp
°C
Dew
Point
Rel
Hum
%
Delta-T
°C
Wind Press
QNH
hPa
Press
MSL
hPa
Rain
since 9 am
mm
Dir
 
Spd
km/h
Gust
km/h
Spd
kts
Gust
kts
28/11:30pm 2.6 - 2.6 100 0.0 - - - - - 1015.1 1013.0 0.0
28/11:00pm 2.6 - 2.6 100 0.0 - - - - - 1015.1 1013.0 0.0
28/10:30pm 2.7 - 2.7 100 0.0 - - - - - 1015.2 1013.1 0.0
28/10:00pm 3.0 - 3.0 100 0.0 - - - - - 1015.8 1013.7 0.0
28/09:30pm 3.2 - 3.2 100 0.0 - - - - - 1015.8 1013.7 0.0
28/09:00pm 3.3 - 3.3 100 0.0 - - - - - 1015.2 1013.1 0.0

Other Formats:

Comma delimited format used in spreadsheet applications
http://www.bom.gov.au/fwo/IDV60801/IDV60801.94903.axf

JavaScript Object Notation format (JSON) in row-major order
http://www.bom.gov.au/fwo/IDV60801/IDV60801.94903.json